Cambridge, United Kingdom

11:36 PM BST on September 02, 2015 (GMT +0100)
ICAMBRID5 | | Change Station
CLOSE
Current Station
Personal Weather Station
Location: Cambridge, UK
Elevation: 50 ft
Nearby Weather Stations

Elev 50 ft 52.23 °N, 0.13 °E | Updated 6 minutes ago

Clear
Clear
56.5 °F
Feels Like 56.5 °F
N
0.0
Wind Variable Wind from WSW
Gusts 0.0 mph

Today
High -- | Low -- °F
--% Chance of Precip.
Yesterday
High -- | Low -- °F
Precip. -- in
6:11 AM 7:45 PM
Waning Gibbous, 76% visible
Pressure 30.01 in
Visibility -9999.0 miles
Clouds
Dew Point 53 °F
Humidity 87%
Rainfall 0.04 in
Snow Depth Not available.
UV Not available.
Pollen Not available.
Air Quality Not available.
Flu Activity Not available.
METAR EGSS 022220Z 30005KT CAVOK 12/10 Q1016
Pressure 30.01 in
Visibility -9999.0 miles
Clouds
Dew Point 53 °F
Humidity 87%
Rainfall 0.04 in
Snow Depth Not available.
UV Not available.
Pollen Not available.
Air Quality Not available.
Flu Activity Not available.
METAR EGSS 022220Z 30005KT CAVOK 12/10 Q1016

10-Day Weather Forecast

×

Almanac

Astronomy

Sep. 02, 2015 Rise Set
Actual Time
Civil Twilight
Nautical Twilight
Astronomical Twilight
Moon
Length of Visible Light
Length of Day
Tomorrow will be .
, % of the Moon is Illuminated

Today's Extremes

Country Highs Country Lows

Community

WunderPhotos

Upload Photos

1,851,828 photos uploaded!

WunderBlogs® & News

Nearby

Air Quality

  Air Quality AQ Index Pollutant
Not available.

Snow Depth

Station Depth Elevation

Earthquake Activity

City Distance Mag. Time & Date
Minimum magnitude displayed is 2.5.

Coastal Water Temperatures

Place Temperature

Stations

Nearby Weather Stations

Station Location Temp. Windchill Dew Point Humidity Wind Precip. Elev Updated Type